createdAt,value
2018-07-22T00:01:03.465Z,100635.59
2018-07-22T00:03:33.244Z,100636.70
2018-07-22T00:06:02.988Z,100641.00
2018-07-22T00:08:32.698Z,100645.61
2018-07-22T00:11:02.480Z,100645.20
2018-07-22T00:13:32.208Z,100646.25
2018-07-22T00:16:01.895Z,100643.77
2018-07-22T00:18:31.569Z,100648.05
2018-07-22T00:21:01.328Z,100644.73
2018-07-22T00:23:31.093Z,100644.33
2018-07-22T00:26:00.897Z,100647.69
2018-07-22T00:28:30.585Z,100654.51
2018-07-22T00:31:00.444Z,100656.16
2018-07-22T00:33:30.269Z,100650.67
2018-07-22T00:36:00.024Z,100655.61
2018-07-22T00:38:29.757Z,100652.42
2018-07-22T00:40:59.521Z,100657.28
2018-07-22T00:43:29.284Z,100654.44
2018-07-22T00:45:59.073Z,100659.78
2018-07-22T00:48:28.802Z,100659.39
2018-07-22T00:50:58.549Z,100666.91
2018-07-22T00:53:28.262Z,100663.03
2018-07-22T00:55:57.885Z,100671.11
2018-07-22T00:58:27.613Z,100661.77
2018-07-22T01:00:57.310Z,100667.37
2018-07-22T01:03:27.066Z,100664.58
2018-07-22T01:05:56.694Z,100669.48
2018-07-22T01:08:26.352Z,100666.63
2018-07-22T01:10:56.030Z,100667.10
2018-07-22T01:13:26.265Z,100664.77
2018-07-22T01:15:56.062Z,100658.17
2018-07-22T01:18:25.822Z,100660.48
2018-07-22T01:20:55.513Z,100663.60
2018-07-22T01:23:25.168Z,100660.25
2018-07-22T01:25:54.798Z,100662.36
2018-07-22T01:28:24.741Z,100665.86
2018-07-22T01:30:55.084Z,100666.06
2018-07-22T01:33:24.765Z,100666.56
2018-07-22T01:35:55.142Z,100671.14
2018-07-22T01:38:24.850Z,100669.39
2018-07-22T01:40:54.549Z,100671.11
2018-07-22T01:43:24.374Z,100668.14
2018-07-22T01:45:54.029Z,100674.73
2018-07-22T01:48:25.124Z,100674.30
2018-07-22T01:50:54.814Z,100678.44
2018-07-22T01:53:24.522Z,100676.05
2018-07-22T01:55:54.179Z,100677.19
2018-07-22T01:58:23.852Z,100679.35
2018-07-22T02:00:53.500Z,100674.80
2018-07-22T02:03:23.453Z,100673.29
2018-07-22T02:05:52.919Z,100678.83
2018-07-22T02:08:22.785Z,100687.05
2018-07-22T02:10:52.687Z,100683.83
2018-07-22T02:13:22.384Z,100685.73
2018-07-22T02:15:52.349Z,100686.32
2018-07-22T02:18:22.000Z,100690.44
2018-07-22T02:20:51.780Z,100688.59
2018-07-22T02:23:21.429Z,100692.90
2018-07-22T02:25:51.279Z,100694.75
2018-07-22T02:28:20.924Z,100696.01
2018-07-22T02:30:50.573Z,100700.73
2018-07-22T02:33:20.352Z,100700.46
2018-07-22T02:35:50.069Z,100701.66
2018-07-22T02:38:19.710Z,100707.66
2018-07-22T02:40:49.483Z,100712.89
2018-07-22T02:43:19.133Z,100707.28
2018-07-22T02:45:48.960Z,100704.23
2018-07-22T02:48:18.709Z,100710.31
2018-07-22T02:50:48.365Z,100708.54
2018-07-22T02:53:18.074Z,100716.14
2018-07-22T02:55:47.782Z,100719.30
2018-07-22T02:58:17.591Z,100713.42
2018-07-22T03:00:47.317Z,100713.16
2018-07-22T03:03:16.998Z,100723.47
2018-07-22T03:05:46.647Z,100725.92
2018-07-22T03:08:16.385Z,100726.34
2018-07-22T03:10:46.162Z,100721.72
2018-07-22T03:13:15.839Z,100726.11
2018-07-22T03:15:45.176Z,100725.00
2018-07-22T03:18:14.942Z,100734.81
2018-07-22T03:20:44.601Z,100733.52
2018-07-22T03:23:14.256Z,100732.92
2018-07-22T03:25:44.149Z,100736.16
2018-07-22T03:28:13.809Z,100738.28
2018-07-22T03:30:43.432Z,100736.61
2018-07-22T03:33:13.345Z,100739.14
2018-07-22T03:35:43.022Z,100741.60
2018-07-22T03:38:12.710Z,100743.98
2018-07-22T03:40:42.463Z,100745.34
2018-07-22T03:43:12.152Z,100746.19
2018-07-22T03:45:41.896Z,100749.81
2018-07-22T03:48:11.236Z,100749.35
2018-07-22T03:50:40.874Z,100748.41
2018-07-22T03:53:10.561Z,100748.98
2018-07-22T03:55:40.237Z,100750.14
2018-07-22T03:58:10.034Z,100755.39
2018-07-22T04:00:39.908Z,100759.16
2018-07-22T04:03:09.889Z,100752.47
2018-07-22T04:05:39.588Z,100751.27
2018-07-22T04:08:09.457Z,100756.31
2018-07-22T04:10:39.137Z,100754.35
2018-07-22T04:13:09.282Z,100756.90
2018-07-22T04:15:39.229Z,100758.41
2018-07-22T04:18:15.471Z,100762.11
2018-07-22T04:20:45.118Z,100755.91
2018-07-22T04:23:14.760Z,100758.95
2018-07-22T04:25:44.490Z,100759.72
2018-07-22T04:28:14.297Z,100764.94
2018-07-22T04:30:43.965Z,100764.66
2018-07-22T04:33:13.673Z,100762.48
2018-07-22T04:35:43.354Z,100767.25
2018-07-22T04:38:13.607Z,100766.56
2018-07-22T04:40:43.509Z,100769.09
2018-07-22T04:43:13.262Z,100778.77
2018-07-22T04:45:42.958Z,100780.08
2018-07-22T04:48:12.780Z,100777.94
2018-07-22T04:50:42.460Z,100782.37
2018-07-22T04:53:12.044Z,100787.77
2018-07-22T04:55:41.457Z,100786.24
2018-07-22T04:58:11.185Z,100782.63
2018-07-22T05:00:41.053Z,100785.09
2018-07-22T05:03:10.989Z,100787.84
2018-07-22T05:05:40.621Z,100791.87
2018-07-22T05:08:10.001Z,100796.63
2018-07-22T05:10:39.687Z,100791.54
2018-07-22T05:13:09.368Z,100801.97
2018-07-22T05:15:39.792Z,100805.02
2018-07-22T05:18:09.594Z,100808.19
2018-07-22T05:20:40.113Z,100807.15
2018-07-22T05:23:09.919Z,100807.07
2018-07-22T05:25:41.091Z,100808.88
2018-07-22T05:28:10.442Z,100810.02
2018-07-22T05:30:40.214Z,100810.52
2018-07-22T05:33:09.903Z,100812.14
2018-07-22T05:35:39.824Z,100815.83
2018-07-22T05:38:09.656Z,100817.30
2018-07-22T05:40:39.401Z,100821.72
2018-07-22T05:43:09.069Z,100821.27
2018-07-22T05:45:38.858Z,100821.47
2018-07-22T05:48:08.786Z,100827.95
2018-07-22T05:55:17.320Z,100814.00
2018-07-22T05:57:47.065Z,100821.85
2018-07-22T06:00:16.823Z,100823.70
2018-07-22T06:02:46.658Z,100825.31
2018-07-22T06:05:16.612Z,100831.41
2018-07-22T06:07:46.333Z,100832.33
2018-07-22T06:10:16.210Z,100829.53
2018-07-22T06:12:46.004Z,100834.70
2018-07-22T06:15:15.745Z,100836.22
2018-07-22T06:17:45.425Z,100834.91
2018-07-22T06:20:14.753Z,100833.73
2018-07-22T06:22:44.469Z,100845.41
2018-07-22T06:25:14.168Z,100843.91
2018-07-22T06:27:43.855Z,100842.17
2018-07-22T06:30:13.653Z,100836.04
2018-07-22T06:32:43.337Z,100838.48
2018-07-22T06:35:13.257Z,100839.20
2018-07-22T06:37:43.003Z,100840.06
2018-07-22T06:40:12.723Z,100828.93
2018-07-22T06:42:42.500Z,100838.81
2018-07-22T06:45:12.162Z,100841.31
2018-07-22T06:47:41.857Z,100850.51
2018-07-22T06:50:11.537Z,100854.64
2018-07-22T06:52:41.204Z,100855.66
2018-07-22T06:55:11.057Z,100857.06
2018-07-22T06:57:40.913Z,100855.53
2018-07-22T07:00:10.660Z,100857.42
2018-07-22T07:02:40.017Z,100851.67
2018-07-22T07:05:09.757Z,100855.47
2018-07-22T07:07:39.462Z,100854.46
2018-07-22T07:10:09.418Z,100856.35
2018-07-22T07:12:39.294Z,100857.16
2018-07-22T07:15:08.981Z,100858.74
2018-07-22T07:17:38.704Z,100860.01
2018-07-22T07:20:08.461Z,100858.67
2018-07-22T07:22:38.445Z,100861.45
2018-07-22T07:25:08.766Z,100859.04
2018-07-22T07:27:38.653Z,100865.04
2018-07-22T07:30:08.560Z,100870.50
2018-07-22T07:32:38.037Z,100869.48
2018-07-22T07:35:07.752Z,100869.71
2018-07-22T07:37:37.421Z,100867.22
2018-07-22T07:40:07.549Z,100874.53
2018-07-22T07:42:37.764Z,100871.59
2018-07-22T07:45:07.621Z,100871.04
2018-07-22T07:47:37.422Z,100872.02
2018-07-22T07:50:07.218Z,100872.80
2018-07-22T07:52:36.946Z,100875.05
2018-07-22T07:55:07.000Z,100873.00
2018-07-22T07:57:37.209Z,100878.70
2018-07-22T08:00:07.479Z,100863.70
2018-07-22T08:02:37.206Z,100873.11
2018-07-22T08:05:07.370Z,100874.06
2018-07-22T08:07:37.477Z,100870.13
2018-07-22T08:10:08.136Z,100873.16
2018-07-22T08:12:37.868Z,100873.63
2018-07-22T08:15:07.843Z,100872.66
2018-07-22T08:17:37.500Z,100870.13
2018-07-22T08:20:07.547Z,100873.23
2018-07-22T08:22:37.344Z,100870.92
2018-07-22T08:25:08.094Z,100866.05
2018-07-22T08:27:37.859Z,100870.11
2018-07-22T08:30:07.808Z,100867.41
2018-07-22T08:32:37.608Z,100863.94
2018-07-22T08:35:07.553Z,100866.41
2018-07-22T08:37:37.431Z,100868.66
2018-07-22T08:40:07.610Z,100872.94
2018-07-22T08:42:37.355Z,100867.66
2018-07-22T08:45:08.052Z,100864.83
2018-07-22T08:47:37.783Z,100869.02
2018-07-22T08:50:07.863Z,100864.50
2018-07-22T08:52:37.741Z,100869.04
2018-07-22T08:55:07.675Z,100871.05
2018-07-22T08:57:37.688Z,100869.92
2018-07-22T09:00:08.215Z,100871.77
2018-07-22T09:02:38.022Z,100873.45
2018-07-22T09:05:08.299Z,100869.38
2018-07-22T09:07:38.010Z,100866.05
2018-07-22T09:10:08.193Z,100867.83
2018-07-22T09:12:37.882Z,100875.20
2018-07-22T09:15:07.871Z,100872.38
2018-07-22T09:17:37.637Z,100867.20
2018-07-22T09:20:07.478Z,100873.28
2018-07-22T09:22:37.169Z,100874.12
2018-07-22T09:25:07.137Z,100870.42
2018-07-22T09:27:36.914Z,100868.90
2018-07-22T09:30:07.188Z,100869.68
2018-07-22T09:32:36.984Z,100868.82
2018-07-22T09:35:06.767Z,100868.55
2018-07-22T09:37:36.578Z,100873.53
2018-07-22T09:40:06.494Z,100869.69
2018-07-22T09:42:36.232Z,100872.37
2018-07-22T09:45:06.246Z,100873.34
2018-07-22T09:47:36.116Z,100877.26
2018-07-22T09:50:05.814Z,100875.03
2018-07-22T09:52:35.184Z,100870.09
2018-07-22T09:55:04.921Z,100870.77
2018-07-22T09:57:34.850Z,100877.56
2018-07-22T10:00:05.350Z,100872.28
2018-07-22T10:02:36.141Z,100872.67
2018-07-22T10:05:05.962Z,100861.92
2018-07-22T10:07:35.744Z,100863.79
2018-07-22T10:10:05.614Z,100860.73
2018-07-22T10:12:35.288Z,100859.94
2018-07-22T10:15:05.291Z,100860.82
2018-07-22T10:17:35.129Z,100861.83
2018-07-22T10:20:04.881Z,100866.88
2018-07-22T10:22:34.654Z,100870.22
2018-07-22T10:25:04.362Z,100860.25
2018-07-22T10:27:34.090Z,100860.02
2018-07-22T10:30:03.871Z,100866.98
2018-07-22T10:32:33.602Z,100865.03
2018-07-22T10:35:03.437Z,100861.59
2018-07-22T10:37:33.365Z,100861.80
2018-07-22T10:40:03.332Z,100869.58
2018-07-22T10:42:33.263Z,100866.07
2018-07-22T10:45:03.003Z,100859.88
2018-07-22T10:47:32.694Z,100865.83
2018-07-22T10:50:02.394Z,100863.41
2018-07-22T10:52:32.503Z,100861.59
2018-07-22T10:55:02.247Z,100856.47
2018-07-22T10:57:32.056Z,100853.39
2018-07-22T11:00:02.122Z,100847.87
2018-07-22T11:02:31.976Z,100855.55
2018-07-22T11:05:01.717Z,100855.79
2018-07-22T11:07:31.712Z,100860.13
2018-07-22T11:10:01.390Z,100855.78
2018-07-22T11:12:31.165Z,100854.53
2018-07-22T11:15:01.072Z,100852.14
2018-07-22T11:17:30.857Z,100849.48
2018-07-22T11:20:00.589Z,100842.98
2018-07-22T11:22:30.321Z,100843.08
2018-07-22T11:25:00.103Z,100850.78
2018-07-22T11:27:29.915Z,100845.64
2018-07-22T11:29:59.710Z,100846.80
2018-07-22T11:32:29.427Z,100848.04
2018-07-22T11:34:59.153Z,100850.44
2018-07-22T11:37:28.897Z,100839.31
2018-07-22T11:39:58.636Z,100836.41
2018-07-22T11:42:27.972Z,100841.02
2018-07-22T11:44:57.753Z,100838.95
2018-07-22T11:47:27.457Z,100836.25
2018-07-22T11:49:56.830Z,100823.50
2018-07-22T11:52:26.697Z,100832.50
2018-07-22T11:54:56.454Z,100823.32
2018-07-22T11:57:26.142Z,100826.91
2018-07-22T11:59:55.914Z,100820.03
2018-07-22T12:02:25.617Z,100817.72
2018-07-22T12:04:55.402Z,100832.20
2018-07-22T12:07:25.247Z,100821.62
2018-07-22T12:09:55.008Z,100818.84
2018-07-22T12:12:24.804Z,100806.23
2018-07-22T12:14:54.537Z,100814.69
2018-07-22T12:17:24.417Z,100817.71
2018-07-22T12:19:54.134Z,100805.94
2018-07-22T12:22:23.928Z,100801.59
2018-07-22T12:24:53.758Z,100803.84
2018-07-22T12:27:23.536Z,100802.04
2018-07-22T12:29:53.300Z,100802.94
2018-07-22T12:32:23.101Z,100797.39
2018-07-22T12:34:52.910Z,100798.15
2018-07-22T12:37:22.629Z,100796.67
2018-07-22T12:39:52.522Z,100792.11
2018-07-22T12:42:22.524Z,100791.95
2018-07-22T12:44:52.250Z,100794.19
2018-07-22T12:47:22.100Z,100789.64
2018-07-22T12:49:51.825Z,100791.88
2018-07-22T12:52:21.168Z,100785.67
2018-07-22T12:54:50.897Z,100788.12
2018-07-22T12:57:20.638Z,100783.66
2018-07-22T12:59:50.665Z,100786.77
2018-07-22T13:02:20.384Z,100777.36
2018-07-22T13:04:50.125Z,100785.17
2018-07-22T13:07:19.968Z,100778.55
2018-07-22T13:09:49.774Z,100777.39
2018-07-22T13:12:19.641Z,100771.21
2018-07-22T13:14:49.529Z,100777.67
2018-07-22T13:17:19.198Z,100785.61
2018-07-22T13:19:48.907Z,100784.19
2018-07-22T13:22:18.681Z,100780.97
2018-07-22T13:24:48.499Z,100781.93
2018-07-22T13:27:18.261Z,100775.83
2018-07-22T13:29:47.928Z,100786.01
2018-07-22T13:32:17.715Z,100778.94
2018-07-22T13:34:47.481Z,100770.66
2018-07-22T13:37:17.333Z,100774.45
2018-07-22T13:39:47.266Z,100779.21
2018-07-22T13:42:17.416Z,100769.14
2018-07-22T13:44:47.207Z,100775.67
2018-07-22T13:47:16.988Z,100769.84
2018-07-22T13:49:46.585Z,100768.42
2018-07-22T13:52:16.051Z,100780.95
2018-07-22T13:54:45.918Z,100779.89
2018-07-22T13:57:15.768Z,100787.21
2018-07-22T13:59:45.534Z,100775.92
2018-07-22T14:02:15.302Z,100777.02
2018-07-22T14:04:45.081Z,100771.81
2018-07-22T14:07:14.954Z,100768.31
2018-07-22T14:09:44.866Z,100778.69
2018-07-22T14:12:14.709Z,100779.84
2018-07-22T14:14:45.589Z,100777.42
2018-07-22T14:17:15.601Z,100773.20
2018-07-22T14:19:45.465Z,100779.97
2018-07-22T14:22:16.163Z,100770.64
2018-07-22T14:24:45.917Z,100773.42
2018-07-22T14:27:15.641Z,100775.81
2018-07-22T14:29:45.488Z,100774.27
2018-07-22T14:32:15.234Z,100770.22
2018-07-22T14:34:44.922Z,100768.55
2018-07-22T14:37:14.647Z,100765.36
2018-07-22T14:39:44.378Z,100760.37
2018-07-22T14:42:14.281Z,100763.03
2018-07-22T14:44:44.002Z,100760.68
2018-07-22T14:47:13.937Z,100762.31
2018-07-22T14:49:43.519Z,100760.64
2018-07-22T14:52:13.245Z,100754.55
2018-07-22T14:54:43.092Z,100762.67
2018-07-22T14:57:12.931Z,100757.36
2018-07-22T14:59:42.824Z,100756.14
2018-07-22T15:02:12.721Z,100759.73
2018-07-22T15:04:42.434Z,100757.14
2018-07-22T15:07:12.085Z,100756.78
2018-07-22T15:09:41.814Z,100755.90
2018-07-22T15:12:11.532Z,100759.31
2018-07-22T15:14:40.958Z,100759.84
2018-07-22T15:17:10.637Z,100757.65
2018-07-22T15:19:40.584Z,100746.38
2018-07-22T15:22:09.961Z,100753.77
2018-07-22T15:24:40.911Z,100757.69
2018-07-22T15:27:10.604Z,100759.77
2018-07-22T15:29:40.428Z,100760.58
2018-07-22T15:32:10.305Z,100759.88
2018-07-22T15:34:40.272Z,100755.47
2018-07-22T15:37:10.268Z,100754.59
2018-07-22T15:39:40.153Z,100753.08
2018-07-22T15:42:10.102Z,100759.37
2018-07-22T15:44:39.889Z,100762.39
2018-07-22T15:47:09.865Z,100761.05
2018-07-22T15:49:39.649Z,100767.64
2018-07-22T15:52:09.418Z,100767.97
2018-07-22T15:54:38.904Z,100769.68
2018-07-22T15:57:08.713Z,100760.34
2018-07-22T15:59:38.449Z,100765.70
2018-07-22T16:02:08.125Z,100765.20
2018-07-22T16:04:37.997Z,100767.80
2018-07-22T16:07:07.724Z,100767.53
2018-07-22T16:09:37.442Z,100763.05
2018-07-22T16:12:07.250Z,100764.39
2018-07-22T16:14:36.975Z,100759.84
2018-07-22T16:17:06.977Z,100766.73
2018-07-22T16:19:36.662Z,100767.68
2018-07-22T16:22:06.441Z,100760.94
2018-07-22T16:24:36.172Z,100763.55
2018-07-22T16:27:05.905Z,100775.52
2018-07-22T16:29:35.299Z,100766.23
2018-07-22T16:32:05.184Z,100765.81
2018-07-22T16:34:35.083Z,100761.36
2018-07-22T16:37:04.818Z,100767.20
2018-07-22T16:39:34.650Z,100765.53
2018-07-22T16:42:05.036Z,100771.51
2018-07-22T16:44:34.985Z,100763.89
2018-07-22T16:47:05.409Z,100763.51
2018-07-22T16:49:35.328Z,100768.27
2018-07-22T16:52:05.141Z,100760.34
2018-07-22T16:54:34.961Z,100762.39
2018-07-22T16:57:04.655Z,100765.24
2018-07-22T16:59:34.578Z,100759.50
2018-07-22T17:02:04.287Z,100761.96
2018-07-22T17:04:34.045Z,100759.99
2018-07-22T17:07:03.733Z,100766.84
2018-07-22T17:09:33.511Z,100767.48
2018-07-22T17:12:03.286Z,100766.65
2018-07-22T17:14:33.016Z,100764.06
2018-07-22T17:17:02.757Z,100775.52
2018-07-22T17:19:32.544Z,100774.08
2018-07-22T17:22:02.682Z,100779.10
2018-07-22T17:24:32.386Z,100777.38
2018-07-22T17:27:02.211Z,100774.69
2018-07-22T17:29:32.000Z,100776.93
2018-07-22T17:32:01.932Z,100775.29
2018-07-22T17:34:31.733Z,100776.59
2018-07-22T17:37:01.406Z,100780.80
2018-07-22T17:39:31.140Z,100782.72
2018-07-22T17:42:01.854Z,100785.72
2018-07-22T17:44:31.646Z,100788.06
2018-07-22T17:47:02.519Z,100790.44
2018-07-22T17:49:32.271Z,100789.19
2018-07-22T17:52:02.062Z,100794.20
2018-07-22T17:54:31.746Z,100795.27
2018-07-22T17:57:01.757Z,100792.80
2018-07-22T17:59:31.531Z,100795.81
2018-07-22T18:02:01.524Z,100791.75
2018-07-22T18:04:31.244Z,100794.55
2018-07-22T18:07:01.610Z,100796.94
2018-07-22T18:09:31.330Z,100798.09
2018-07-22T18:12:01.089Z,100801.14
2018-07-22T18:14:30.896Z,100802.95
2018-07-22T18:17:01.685Z,100800.13
2018-07-22T18:19:31.596Z,100794.17
2018-07-22T18:22:02.055Z,100799.35
2018-07-22T18:24:32.034Z,100799.04
2018-07-22T18:27:01.825Z,100801.86
2018-07-22T18:29:41.057Z,100800.03
2018-07-22T18:32:10.994Z,100805.17
2018-07-22T18:34:53.768Z,100801.38
2018-07-22T18:37:24.012Z,100805.80
2018-07-22T18:39:54.771Z,100804.22
2018-07-22T18:42:24.912Z,100800.77
2018-07-22T18:44:54.854Z,100804.27
2018-07-22T18:47:24.895Z,100807.30
2018-07-22T18:49:55.585Z,100806.02
2018-07-22T18:52:25.642Z,100811.80
2018-07-22T18:54:55.702Z,100811.73
2018-07-22T18:57:27.286Z,100813.90
2018-07-22T18:59:58.214Z,100816.55
2018-07-22T19:02:28.665Z,100819.56
2018-07-22T19:04:58.943Z,100816.06
2018-07-22T19:07:29.200Z,100821.81
2018-07-22T19:09:59.212Z,100828.59
2018-07-22T19:12:29.348Z,100824.61
2018-07-22T19:14:59.417Z,100829.53
2018-07-22T19:17:29.494Z,100824.00
2018-07-22T19:19:59.487Z,100823.27
2018-07-22T19:22:29.591Z,100826.18
2018-07-22T19:24:59.634Z,100825.96
2018-07-22T19:27:29.790Z,100831.69
2018-07-22T19:29:59.846Z,100828.94
2018-07-22T19:32:29.878Z,100833.86
2018-07-22T19:34:59.933Z,100836.36
2018-07-22T19:37:30.102Z,100847.70
2018-07-22T19:40:00.141Z,100848.29
2018-07-22T19:42:29.813Z,100844.50
2018-07-22T19:44:59.816Z,100851.48
2018-07-22T19:47:29.812Z,100855.20
2018-07-22T19:49:59.760Z,100863.28
2018-07-22T19:52:29.841Z,100867.38
2018-07-22T19:54:59.795Z,100867.93
2018-07-22T19:57:29.803Z,100873.83
2018-07-22T19:59:59.809Z,100871.95
2018-07-22T20:02:29.854Z,100869.48
2018-07-22T20:05:00.031Z,100869.92
2018-07-22T20:07:30.065Z,100867.27
2018-07-22T20:10:00.171Z,100867.97
2018-07-22T20:12:30.192Z,100880.27
2018-07-22T20:15:00.300Z,100879.69
2018-07-22T20:17:30.660Z,100882.37
2018-07-22T20:20:00.662Z,100884.63
2018-07-22T20:22:30.781Z,100888.11
2018-07-22T20:25:00.843Z,100881.70
2018-07-22T20:27:30.907Z,100888.36
2018-07-22T20:30:00.764Z,100892.98
2018-07-22T20:32:30.763Z,100898.96
2018-07-22T20:35:00.623Z,100897.37
2018-07-22T20:37:30.927Z,100901.18
2018-07-22T20:40:01.038Z,100898.25
2018-07-22T20:42:30.785Z,100900.04
2018-07-22T20:45:00.509Z,100901.73
2018-07-22T20:47:30.250Z,100907.58
2018-07-22T20:50:00.058Z,100912.90
2018-07-22T20:52:29.809Z,100914.44
2018-07-22T20:55:06.240Z,100919.16
2018-07-22T20:57:35.947Z,100922.94
2018-07-22T21:00:06.208Z,100922.99
2018-07-22T21:02:35.983Z,100925.95
2018-07-22T21:05:06.462Z,100930.89
2018-07-22T21:07:36.145Z,100929.48
2018-07-22T21:10:05.877Z,100923.66
2018-07-22T21:12:54.646Z,100932.06
2018-07-22T21:15:24.515Z,100932.98
2018-07-22T21:17:54.499Z,100936.13
2018-07-22T21:20:24.482Z,100938.89
2018-07-22T21:22:54.209Z,100942.34
2018-07-22T21:25:24.064Z,100947.95
2018-07-22T21:27:53.742Z,100949.06
2018-07-22T21:30:23.498Z,100949.47
2018-07-22T21:32:54.305Z,100949.18
2018-07-22T21:35:24.224Z,100950.88
2018-07-22T21:37:54.132Z,100957.30
2018-07-22T21:40:23.942Z,100957.03
2018-07-22T21:42:54.137Z,100961.42
2018-07-22T21:45:23.925Z,100955.17
2018-07-22T21:47:53.692Z,100959.84
2018-07-22T21:50:23.707Z,100964.16
2018-07-22T21:52:53.546Z,100962.28
2018-07-22T21:55:23.384Z,100971.69
2018-07-22T21:57:53.241Z,100973.11
2018-07-22T22:00:31.202Z,100971.23
2018-07-22T22:03:02.801Z,100969.80
2018-07-22T22:05:32.601Z,100970.94
2018-07-22T22:08:02.452Z,100980.90
2018-07-22T22:10:32.189Z,100980.20
2018-07-22T22:13:01.979Z,100980.02
2018-07-22T22:15:32.611Z,100981.05
2018-07-22T22:18:03.586Z,100984.27
2018-07-22T22:20:33.632Z,100984.90
2018-07-22T22:23:03.397Z,100987.95
2018-07-22T22:25:33.454Z,100983.75
2018-07-22T22:28:03.222Z,100988.29
2018-07-22T22:30:33.181Z,100985.15
2018-07-22T22:33:04.648Z,100988.70
2018-07-22T22:35:35.087Z,100991.52
2018-07-22T22:38:04.945Z,100987.39
2018-07-22T22:40:34.756Z,100989.72
2018-07-22T22:43:04.623Z,100990.81
2018-07-22T22:45:35.099Z,100989.74
2018-07-22T22:48:04.901Z,100993.80
2018-07-22T22:50:34.617Z,100990.45
2018-07-22T22:53:04.326Z,100989.19
2018-07-22T22:55:33.746Z,100995.05
2018-07-22T22:58:20.187Z,100993.33
2018-07-22T23:00:49.921Z,100996.56
2018-07-22T23:03:19.628Z,100995.80
2018-07-22T23:05:49.303Z,100990.23
2018-07-22T23:08:19.026Z,100991.62
2018-07-22T23:10:48.754Z,100990.90
2018-07-22T23:13:18.481Z,100994.98
2018-07-22T23:15:48.158Z,100990.25
2018-07-22T23:18:17.865Z,100990.80
2018-07-22T23:20:47.573Z,100991.82
2018-07-22T23:23:17.306Z,100994.62
2018-07-22T23:25:47.051Z,100993.41
2018-07-22T23:28:16.734Z,100996.62
2018-07-22T23:30:46.579Z,100998.05
2018-07-22T23:33:16.305Z,101002.90
2018-07-22T23:35:46.299Z,101005.56
2018-07-22T23:38:15.991Z,101004.62
2018-07-22T23:40:45.766Z,101008.50
2018-07-22T23:43:15.529Z,101003.72
2018-07-22T23:45:45.396Z,101000.30
2018-07-22T23:48:15.104Z,100999.55
2018-07-22T23:50:45.885Z,101002.14
2018-07-22T23:53:15.722Z,101001.30
2018-07-22T23:55:45.421Z,100998.30
2018-07-22T23:58:15.122Z,101002.28
